sensor_id;sensor_type;location;lat;lon;timestamp;P1;durP1;ratioP1;P2;durP2;ratioP2
55469;SDS011;41334;47.872;16.384;2023-07-08T00:03:22;3.42;;;2.25;;
55469;SDS011;41334;47.872;16.384;2023-07-08T00:08:24;4.95;;;2.55;;
55469;SDS011;41334;47.872;16.384;2023-07-08T00:13:26;3.25;;;2.17;;
55469;SDS011;41334;47.872;16.384;2023-07-08T00:18:28;3.35;;;2.22;;
55469;SDS011;41334;47.872;16.384;2023-07-08T00:23:30;3.17;;;2.03;;
55469;SDS011;41334;47.872;16.384;2023-07-08T00:28:32;4.25;;;2.03;;
55469;SDS011;41334;47.872;16.384;2023-07-08T00:33:33;3.58;;;2.17;;
55469;SDS011;41334;47.872;16.384;2023-07-08T00:38:35;2.88;;;1.90;;
55469;SDS011;41334;47.872;16.384;2023-07-08T00:43:38;4.78;;;2.33;;
55469;SDS011;41334;47.872;16.384;2023-07-08T00:48:43;5.35;;;2.20;;
55469;SDS011;41334;47.872;16.384;2023-07-08T00:53:47;2.90;;;1.95;;
55469;SDS011;41334;47.872;16.384;2023-07-08T00:59:01;4.40;;;2.47;;
55469;SDS011;41334;47.872;16.384;2023-07-08T01:04:10;4.13;;;2.20;;
55469;SDS011;41334;47.872;16.384;2023-07-08T01:09:37;6.18;;;2.40;;
55469;SDS011;41334;47.872;16.384;2023-07-08T01:14:49;3.00;;;1.80;;
55469;SDS011;41334;47.872;16.384;2023-07-08T01:19:55;5.35;;;2.30;;
55469;SDS011;41334;47.872;16.384;2023-07-08T01:24:57;5.00;;;2.47;;
55469;SDS011;41334;47.872;16.384;2023-07-08T01:30:05;4.35;;;2.70;;
55469;SDS011;41334;47.872;16.384;2023-07-08T01:35:08;3.95;;;2.55;;
55469;SDS011;41334;47.872;16.384;2023-07-08T01:40:23;7.68;;;2.15;;
55469;SDS011;41334;47.872;16.384;2023-07-08T01:45:33;4.55;;;2.50;;
55469;SDS011;41334;47.872;16.384;2023-07-08T01:51:11;5.03;;;2.50;;
55469;SDS011;41334;47.872;16.384;2023-07-08T01:56:06;6.22;;;2.20;;
55469;SDS011;41334;47.872;16.384;2023-07-08T02:01:09;5.50;;;2.50;;
55469;SDS011;41334;47.872;16.384;2023-07-08T02:06:12;4.07;;;2.40;;
55469;SDS011;41334;47.872;16.384;2023-07-08T02:11:14;5.32;;;2.13;;
55469;SDS011;41334;47.872;16.384;2023-07-08T02:16:17;3.55;;;2.25;;
55469;SDS011;41334;47.872;16.384;2023-07-08T02:21:19;3.00;;;1.95;;
55469;SDS011;41334;47.872;16.384;2023-07-08T02:26:21;5.60;;;2.35;;
55469;SDS011;41334;47.872;16.384;2023-07-08T02:31:23;4.50;;;2.80;;
55469;SDS011;41334;47.872;16.384;2023-07-08T02:36:26;3.65;;;2.13;;
55469;SDS011;41334;47.872;16.384;2023-07-08T02:41:28;3.47;;;2.30;;
55469;SDS011;41334;47.872;16.384;2023-07-08T02:46:30;5.63;;;2.78;;
55469;SDS011;41334;47.872;16.384;2023-07-08T02:51:31;3.83;;;2.35;;
55469;SDS011;41334;47.872;16.384;2023-07-08T02:56:33;4.05;;;2.30;;
55469;SDS011;41334;47.872;16.384;2023-07-08T03:01:35;3.40;;;2.20;;
55469;SDS011;41334;47.872;16.384;2023-07-08T03:06:46;6.97;;;2.33;;
55469;SDS011;41334;47.872;16.384;2023-07-08T03:11:48;4.13;;;2.05;;
55469;SDS011;41334;47.872;16.384;2023-07-08T03:16:50;3.90;;;2.00;;
55469;SDS011;41334;47.872;16.384;2023-07-08T03:21:52;4.50;;;2.08;;
55469;SDS011;41334;47.872;16.384;2023-07-08T03:26:54;4.30;;;2.45;;
55469;SDS011;41334;47.872;16.384;2023-07-08T03:31:58;3.20;;;2.22;;
55469;SDS011;41334;47.872;16.384;2023-07-08T03:37:00;3.92;;;2.63;;
55469;SDS011;41334;47.872;16.384;2023-07-08T03:42:02;4.40;;;2.58;;
55469;SDS011;41334;47.872;16.384;2023-07-08T03:47:07;3.08;;;2.15;;
55469;SDS011;41334;47.872;16.384;2023-07-08T03:52:12;4.78;;;2.55;;
55469;SDS011;41334;47.872;16.384;2023-07-08T03:57:18;4.03;;;2.08;;
55469;SDS011;41334;47.872;16.384;2023-07-08T04:02:22;3.85;;;2.00;;
55469;SDS011;41334;47.872;16.384;2023-07-08T04:07:24;3.72;;;2.00;;
55469;SDS011;41334;47.872;16.384;2023-07-08T04:12:26;6.50;;;1.90;;
55469;SDS011;41334;47.872;16.384;2023-07-08T04:17:28;3.08;;;1.98;;
55469;SDS011;41334;47.872;16.384;2023-07-08T04:22:31;6.07;;;2.17;;
55469;SDS011;41334;47.872;16.384;2023-07-08T04:27:33;4.43;;;2.00;;
55469;SDS011;41334;47.872;16.384;2023-07-08T04:32:35;1.90;;;1.45;;
55469;SDS011;41334;47.872;16.384;2023-07-08T04:37:39;3.95;;;1.92;;
55469;SDS011;41334;47.872;16.384;2023-07-08T04:42:41;4.00;;;2.22;;
55469;SDS011;41334;47.872;16.384;2023-07-08T04:47:43;5.68;;;2.30;;
55469;SDS011;41334;47.872;16.384;2023-07-08T04:52:48;4.13;;;2.17;;
55469;SDS011;41334;47.872;16.384;2023-07-08T04:57:51;4.38;;;2.35;;
55469;SDS011;41334;47.872;16.384;2023-07-08T05:36:13;6.00;;;2.63;;
55469;SDS011;41334;47.872;16.384;2023-07-08T05:41:15;6.88;;;2.53;;
55469;SDS011;41334;47.872;16.384;2023-07-08T05:46:17;7.30;;;2.30;;
55469;SDS011;41334;47.872;16.384;2023-07-08T05:51:19;3.95;;;2.30;;
55469;SDS011;41334;47.872;16.384;2023-07-08T05:56:21;4.45;;;2.38;;
55469;SDS011;41334;47.872;16.384;2023-07-08T06:01:23;3.22;;;2.30;;
55469;SDS011;41334;47.872;16.384;2023-07-08T06:06:25;4.63;;;2.40;;
55469;SDS011;41334;47.872;16.384;2023-07-08T06:11:28;2.90;;;2.00;;
55469;SDS011;41334;47.872;16.384;2023-07-08T06:16:33;5.30;;;2.70;;
55469;SDS011;41334;47.872;16.384;2023-07-08T06:21:42;4.03;;;2.40;;
55469;SDS011;41334;47.872;16.384;2023-07-08T06:26:44;3.13;;;2.08;;
55469;SDS011;41334;47.872;16.384;2023-07-08T06:31:59;4.50;;;2.47;;
55469;SDS011;41334;47.872;16.384;2023-07-08T06:37:01;4.90;;;2.83;;
55469;SDS011;41334;47.872;16.384;2023-07-08T06:42:03;3.75;;;2.50;;
55469;SDS011;41334;47.872;16.384;2023-07-08T06:47:07;8.25;;;2.72;;
55469;SDS011;41334;47.872;16.384;2023-07-08T06:52:09;4.35;;;2.60;;
55469;SDS011;41334;47.872;16.384;2023-07-08T06:57:11;6.25;;;2.60;;
55469;SDS011;41334;47.872;16.384;2023-07-08T07:02:15;3.13;;;2.40;;
55469;SDS011;41334;47.872;16.384;2023-07-08T07:07:18;5.50;;;2.95;;
55469;SDS011;41334;47.872;16.384;2023-07-08T07:23:37;5.03;;;2.63;;
55469;SDS011;41334;47.872;16.384;2023-07-08T07:28:38;4.18;;;2.47;;
55469;SDS011;41334;47.872;16.384;2023-07-08T07:33:40;4.30;;;2.55;;
55469;SDS011;41334;47.872;16.384;2023-07-08T07:38:42;4.25;;;2.90;;
55469;SDS011;41334;47.872;16.384;2023-07-08T07:43:44;7.78;;;2.75;;
55469;SDS011;41334;47.872;16.384;2023-07-08T07:48:46;9.90;;;2.92;;
55469;SDS011;41334;47.872;16.384;2023-07-08T07:53:48;5.57;;;2.38;;
55469;SDS011;41334;47.872;16.384;2023-07-08T07:58:50;3.47;;;2.38;;
55469;SDS011;41334;47.872;16.384;2023-07-08T08:03:52;4.38;;;2.38;;
55469;SDS011;41334;47.872;16.384;2023-07-08T08:08:54;3.42;;;2.15;;
55469;SDS011;41334;47.872;16.384;2023-07-08T08:13:58;4.70;;;2.60;;
55469;SDS011;41334;47.872;16.384;2023-07-08T08:19:02;6.20;;;2.90;;
55469;SDS011;41334;47.872;16.384;2023-07-08T08:24:09;4.75;;;2.13;;
55469;SDS011;41334;47.872;16.384;2023-07-08T08:29:11;4.70;;;2.55;;
55469;SDS011;41334;47.872;16.384;2023-07-08T08:34:13;3.53;;;2.15;;
55469;SDS011;41334;47.872;16.384;2023-07-08T08:39:15;4.22;;;1.95;;
55469;SDS011;41334;47.872;16.384;2023-07-08T08:44:17;3.70;;;1.75;;
55469;SDS011;41334;47.872;16.384;2023-07-08T08:49:28;3.78;;;1.92;;
55469;SDS011;41334;47.872;16.384;2023-07-08T08:54:34;3.72;;;2.25;;
55469;SDS011;41334;47.872;16.384;2023-07-08T09:04:46;7.43;;;2.22;;
55469;SDS011;41334;47.872;16.384;2023-07-08T09:10:26;5.20;;;2.30;;
55469;SDS011;41334;47.872;16.384;2023-07-08T09:15:22;3.75;;;2.22;;
55469;SDS011;41334;47.872;16.384;2023-07-08T09:20:27;3.03;;;1.92;;
55469;SDS011;41334;47.872;16.384;2023-07-08T09:25:41;6.13;;;2.13;;
55469;SDS011;41334;47.872;16.384;2023-07-08T09:30:57;4.88;;;2.63;;
55469;SDS011;41334;47.872;16.384;2023-07-08T09:36:00;3.17;;;1.98;;
55469;SDS011;41334;47.872;16.384;2023-07-08T09:41:03;2.60;;;1.98;;
55469;SDS011;41334;47.872;16.384;2023-07-08T09:46:05;6.82;;;1.98;;
55469;SDS011;41334;47.872;16.384;2023-07-08T09:51:14;5.93;;;2.28;;
55469;SDS011;41334;47.872;16.384;2023-07-08T09:56:17;6.53;;;2.40;;
55469;SDS011;41334;47.872;16.384;2023-07-08T10:01:21;5.88;;;2.08;;
55469;SDS011;41334;47.872;16.384;2023-07-08T10:06:28;7.93;;;2.10;;
55469;SDS011;41334;47.872;16.384;2023-07-08T10:11:39;3.47;;;1.70;;
55469;SDS011;41334;47.872;16.384;2023-07-08T10:16:45;5.60;;;2.75;;
55469;SDS011;41334;47.872;16.384;2023-07-08T10:27:08;3.85;;;1.70;;
55469;SDS011;41334;47.872;16.384;2023-07-08T10:32:31;5.53;;;2.17;;
55469;SDS011;41334;47.872;16.384;2023-07-08T10:38:02;3.70;;;1.55;;
55469;SDS011;41334;47.872;16.384;2023-07-08T11:21:05;4.43;;;2.00;;
55469;SDS011;41334;47.872;16.384;2023-07-08T11:26:15;7.45;;;4.55;;
55469;SDS011;41334;47.872;16.384;2023-07-08T11:31:27;4.38;;;2.30;;
55469;SDS011;41334;47.872;16.384;2023-07-08T11:36:33;2.92;;;1.80;;
55469;SDS011;41334;47.872;16.384;2023-07-08T11:41:36;2.58;;;1.73;;
55469;SDS011;41334;47.872;16.384;2023-07-08T11:46:38;4.38;;;1.83;;
55469;SDS011;41334;47.872;16.384;2023-07-08T11:51:56;3.97;;;1.80;;
55469;SDS011;41334;47.872;16.384;2023-07-08T11:57:00;2.58;;;1.60;;
55469;SDS011;41334;47.872;16.384;2023-07-08T12:02:14;4.20;;;1.92;;
55469;SDS011;41334;47.872;16.384;2023-07-08T12:07:22;3.22;;;1.80;;
55469;SDS011;41334;47.872;16.384;2023-07-08T12:12:36;2.40;;;1.88;;
55469;SDS011;41334;47.872;16.384;2023-07-08T12:17:42;3.42;;;1.90;;
55469;SDS011;41334;47.872;16.384;2023-07-08T12:22:44;3.45;;;2.03;;
55469;SDS011;41334;47.872;16.384;2023-07-08T12:27:47;4.15;;;1.80;;
55469;SDS011;41334;47.872;16.384;2023-07-08T12:32:49;2.42;;;1.50;;
55469;SDS011;41334;47.872;16.384;2023-07-08T12:37:54;3.10;;;1.85;;
55469;SDS011;41334;47.872;16.384;2023-07-08T12:43:04;2.88;;;1.73;;
55469;SDS011;41334;47.872;16.384;2023-07-08T12:48:12;3.10;;;1.65;;
55469;SDS011;41334;47.872;16.384;2023-07-08T12:53:14;3.88;;;1.42;;
55469;SDS011;41334;47.872;16.384;2023-07-08T12:58:20;5.22;;;1.90;;
55469;SDS011;41334;47.872;16.384;2023-07-08T13:03:29;2.58;;;1.60;;
55469;SDS011;41334;47.872;16.384;2023-07-08T13:08:35;3.35;;;1.83;;
55469;SDS011;41334;47.872;16.384;2023-07-08T13:13:44;2.72;;;1.70;;
55469;SDS011;41334;47.872;16.384;2023-07-08T13:18:55;5.65;;;2.00;;
55469;SDS011;41334;47.872;16.384;2023-07-08T13:23:58;2.42;;;1.80;;
55469;SDS011;41334;47.872;16.384;2023-07-08T13:29:01;2.30;;;1.55;;
55469;SDS011;41334;47.872;16.384;2023-07-08T13:34:16;4.20;;;1.88;;
55469;SDS011;41334;47.872;16.384;2023-07-08T13:39:23;3.13;;;1.52;;
55469;SDS011;41334;47.872;16.384;2023-07-08T13:44:30;2.72;;;1.90;;
55469;SDS011;41334;47.872;16.384;2023-07-08T13:49:40;3.80;;;1.85;;
55469;SDS011;41334;47.872;16.384;2023-07-08T13:54:53;3.22;;;1.80;;
55469;SDS011;41334;47.872;16.384;2023-07-08T13:59:59;4.72;;;2.28;;
55469;SDS011;41334;47.872;16.384;2023-07-08T14:05:01;2.83;;;1.92;;
55469;SDS011;41334;47.872;16.384;2023-07-08T14:10:11;3.53;;;2.10;;
55469;SDS011;41334;47.872;16.384;2023-07-08T14:15:14;5.78;;;1.92;;
55469;SDS011;41334;47.872;16.384;2023-07-08T14:20:16;3.47;;;2.25;;
55469;SDS011;41334;47.872;16.384;2023-07-08T14:25:19;3.20;;;2.10;;
55469;SDS011;41334;47.872;16.384;2023-07-08T14:30:26;4.60;;;1.75;;
55469;SDS011;41334;47.872;16.384;2023-07-08T14:35:28;2.53;;;1.70;;
55469;SDS011;41334;47.872;16.384;2023-07-08T14:40:33;3.47;;;2.10;;
55469;SDS011;41334;47.872;16.384;2023-07-08T14:45:43;3.03;;;1.80;;
55469;SDS011;41334;47.872;16.384;2023-07-08T14:50:47;3.10;;;1.92;;
55469;SDS011;41334;47.872;16.384;2023-07-08T14:55:50;6.78;;;1.70;;
55469;SDS011;41334;47.872;16.384;2023-07-08T15:00:55;7.00;;;1.83;;
55469;SDS011;41334;47.872;16.384;2023-07-08T15:05:59;5.63;;;2.00;;
55469;SDS011;41334;47.872;16.384;2023-07-08T15:11:04;3.63;;;1.50;;
55469;SDS011;41334;47.872;16.384;2023-07-08T15:16:15;5.22;;;2.70;;
55469;SDS011;41334;47.872;16.384;2023-07-08T15:21:17;3.75;;;2.45;;
55469;SDS011;41334;47.872;16.384;2023-07-08T15:26:27;2.83;;;1.90;;
55469;SDS011;41334;47.872;16.384;2023-07-08T15:31:30;2.83;;;1.73;;
55469;SDS011;41334;47.872;16.384;2023-07-08T15:36:34;4.35;;;1.95;;
55469;SDS011;41334;47.872;16.384;2023-07-08T15:41:37;4.13;;;1.88;;
55469;SDS011;41334;47.872;16.384;2023-07-08T15:46:42;7.97;;;2.60;;
55469;SDS011;41334;47.872;16.384;2023-07-08T15:51:46;4.82;;;2.65;;
55469;SDS011;41334;47.872;16.384;2023-07-08T15:56:51;11.85;;;8.77;;
55469;SDS011;41334;47.872;16.384;2023-07-08T16:01:54;8.90;;;5.38;;
55469;SDS011;41334;47.872;16.384;2023-07-08T16:07:02;7.20;;;4.10;;
55469;SDS011;41334;47.872;16.384;2023-07-08T16:12:04;4.28;;;2.85;;
55469;SDS011;41334;47.872;16.384;2023-07-08T16:17:07;4.82;;;3.00;;
55469;SDS011;41334;47.872;16.384;2023-07-08T16:22:11;6.55;;;3.55;;
55469;SDS011;41334;47.872;16.384;2023-07-08T16:27:13;3.67;;;1.95;;
55469;SDS011;41334;47.872;16.384;2023-07-08T16:32:15;6.00;;;2.10;;
55469;SDS011;41334;47.872;16.384;2023-07-08T16:37:18;3.17;;;1.83;;
55469;SDS011;41334;47.872;16.384;2023-07-08T16:42:20;6.60;;;2.15;;
55469;SDS011;41334;47.872;16.384;2023-07-08T16:47:23;3.92;;;2.00;;
55469;SDS011;41334;47.872;16.384;2023-07-08T16:52:25;3.50;;;2.03;;
55469;SDS011;41334;47.872;16.384;2023-07-08T16:57:27;4.13;;;1.70;;
55469;SDS011;41334;47.872;16.384;2023-07-08T17:02:29;5.55;;;3.38;;
55469;SDS011;41334;47.872;16.384;2023-07-08T17:07:32;12.35;;;7.05;;
55469;SDS011;41334;47.872;16.384;2023-07-08T17:12:33;17.80;;;9.90;;
55469;SDS011;41334;47.872;16.384;2023-07-08T17:17:35;13.75;;;6.80;;
55469;SDS011;41334;47.872;16.384;2023-07-08T17:22:39;9.13;;;3.75;;
55469;SDS011;41334;47.872;16.384;2023-07-08T17:27:41;5.82;;;2.17;;
55469;SDS011;41334;47.872;16.384;2023-07-08T17:32:46;2.38;;;1.70;;
55469;SDS011;41334;47.872;16.384;2023-07-08T17:37:51;5.35;;;1.77;;
55469;SDS011;41334;47.872;16.384;2023-07-08T17:42:54;7.80;;;1.83;;
55469;SDS011;41334;47.872;16.384;2023-07-08T17:47:57;3.17;;;1.52;;
55469;SDS011;41334;47.872;16.384;2023-07-08T17:53:02;3.78;;;1.52;;
55469;SDS011;41334;47.872;16.384;2023-07-08T17:58:08;3.78;;;1.88;;
55469;SDS011;41334;47.872;16.384;2023-07-08T18:03:14;6.40;;;1.70;;
55469;SDS011;41334;47.872;16.384;2023-07-08T18:08:16;5.63;;;1.80;;
55469;SDS011;41334;47.872;16.384;2023-07-08T18:13:18;2.20;;;1.60;;
55469;SDS011;41334;47.872;16.384;2023-07-08T18:18:22;2.42;;;1.90;;
55469;SDS011;41334;47.872;16.384;2023-07-08T18:23:24;3.35;;;2.15;;
55469;SDS011;41334;47.872;16.384;2023-07-08T18:28:33;5.97;;;1.70;;
55469;SDS011;41334;47.872;16.384;2023-07-08T18:33:35;4.25;;;1.98;;
55469;SDS011;41334;47.872;16.384;2023-07-08T18:38:36;4.93;;;1.70;;
55469;SDS011;41334;47.872;16.384;2023-07-08T18:43:38;2.67;;;1.92;;
55469;SDS011;41334;47.872;16.384;2023-07-08T18:48:40;4.78;;;1.60;;
55469;SDS011;41334;47.872;16.384;2023-07-08T18:53:45;2.45;;;1.73;;
55469;SDS011;41334;47.872;16.384;2023-07-08T18:58:48;3.85;;;1.85;;
55469;SDS011;41334;47.872;16.384;2023-07-08T19:03:49;2.55;;;1.90;;
55469;SDS011;41334;47.872;16.384;2023-07-08T19:08:52;2.30;;;1.77;;
55469;SDS011;41334;47.872;16.384;2023-07-08T19:13:54;2.75;;;1.75;;
55469;SDS011;41334;47.872;16.384;2023-07-08T19:18:56;3.65;;;1.73;;
55469;SDS011;41334;47.872;16.384;2023-07-08T19:23:58;2.65;;;1.52;;
55469;SDS011;41334;47.872;16.384;2023-07-08T19:29:01;4.75;;;2.10;;
55469;SDS011;41334;47.872;16.384;2023-07-08T19:34:03;3.33;;;1.67;;
55469;SDS011;41334;47.872;16.384;2023-07-08T19:39:08;5.28;;;1.60;;
55469;SDS011;41334;47.872;16.384;2023-07-08T19:44:14;3.40;;;1.90;;
55469;SDS011;41334;47.872;16.384;2023-07-08T19:49:21;3.08;;;1.75;;
55469;SDS011;41334;47.872;16.384;2023-07-08T19:54:23;3.85;;;1.90;;
55469;SDS011;41334;47.872;16.384;2023-07-08T19:59:25;4.47;;;1.63;;
55469;SDS011;41334;47.872;16.384;2023-07-08T20:04:29;11.82;;;2.00;;
55469;SDS011;41334;47.872;16.384;2023-07-08T20:09:32;3.65;;;2.00;;
55469;SDS011;41334;47.872;16.384;2023-07-08T20:14:36;4.50;;;2.05;;
55469;SDS011;41334;47.872;16.384;2023-07-08T20:19:39;8.30;;;2.42;;
55469;SDS011;41334;47.872;16.384;2023-07-08T20:24:41;6.97;;;2.83;;
55469;SDS011;41334;47.872;16.384;2023-07-08T20:29:43;4.50;;;1.60;;
55469;SDS011;41334;47.872;16.384;2023-07-08T20:34:45;4.43;;;1.67;;
55469;SDS011;41334;47.872;16.384;2023-07-08T20:39:47;9.98;;;2.10;;
55469;SDS011;41334;47.872;16.384;2023-07-08T20:44:49;6.55;;;1.80;;
55469;SDS011;41334;47.872;16.384;2023-07-08T20:49:50;3.65;;;1.63;;
55469;SDS011;41334;47.872;16.384;2023-07-08T20:54:52;3.95;;;1.98;;
55469;SDS011;41334;47.872;16.384;2023-07-08T20:59:54;4.68;;;1.98;;
55469;SDS011;41334;47.872;16.384;2023-07-08T21:04:56;4.38;;;2.33;;
55469;SDS011;41334;47.872;16.384;2023-07-08T21:09:59;5.22;;;2.03;;
55469;SDS011;41334;47.872;16.384;2023-07-08T21:15:03;5.65;;;1.70;;
55469;SDS011;41334;47.872;16.384;2023-07-08T21:20:15;2.92;;;1.60;;
55469;SDS011;41334;47.872;16.384;2023-07-08T21:25:18;3.25;;;1.88;;
55469;SDS011;41334;47.872;16.384;2023-07-08T21:30:25;6.82;;;2.60;;
55469;SDS011;41334;47.872;16.384;2023-07-08T21:35:27;3.53;;;2.03;;
55469;SDS011;41334;47.872;16.384;2023-07-08T21:40:35;7.18;;;2.00;;
55469;SDS011;41334;47.872;16.384;2023-07-08T21:45:39;3.80;;;2.17;;
55469;SDS011;41334;47.872;16.384;2023-07-08T21:50:49;3.38;;;2.00;;
55469;SDS011;41334;47.872;16.384;2023-07-08T21:55:53;4.68;;;2.10;;
55469;SDS011;41334;47.872;16.384;2023-07-08T22:00:56;6.88;;;2.45;;
55469;SDS011;41334;47.872;16.384;2023-07-08T22:05:59;5.50;;;2.88;;
55469;SDS011;41334;47.872;16.384;2023-07-08T22:11:02;5.93;;;3.00;;
55469;SDS011;41334;47.872;16.384;2023-07-08T22:16:09;6.45;;;2.45;;
55469;SDS011;41334;47.872;16.384;2023-07-08T22:21:26;3.63;;;2.03;;
55469;SDS011;41334;47.872;16.384;2023-07-08T22:26:32;3.42;;;2.20;;
55469;SDS011;41334;47.872;16.384;2023-07-08T22:31:37;4.38;;;2.28;;
55469;SDS011;41334;47.872;16.384;2023-07-08T22:36:40;4.32;;;2.20;;
55469;SDS011;41334;47.872;16.384;2023-07-08T22:41:43;7.38;;;2.40;;
55469;SDS011;41334;47.872;16.384;2023-07-08T22:46:49;3.30;;;2.25;;
55469;SDS011;41334;47.872;16.384;2023-07-08T22:51:54;6.95;;;2.90;;
55469;SDS011;41334;47.872;16.384;2023-07-08T22:56:58;7.20;;;2.30;;
55469;SDS011;41334;47.872;16.384;2023-07-08T23:02:00;3.47;;;2.33;;
55469;SDS011;41334;47.872;16.384;2023-07-08T23:07:04;4.78;;;2.58;;
55469;SDS011;41334;47.872;16.384;2023-07-08T23:12:07;5.00;;;2.75;;
55469;SDS011;41334;47.872;16.384;2023-07-08T23:17:11;7.35;;;3.28;;
55469;SDS011;41334;47.872;16.384;2023-07-08T23:22:20;7.82;;;3.20;;
55469;SDS011;41334;47.872;16.384;2023-07-08T23:27:23;5.68;;;3.20;;
55469;SDS011;41334;47.872;16.384;2023-07-08T23:32:26;6.35;;;3.20;;
55469;SDS011;41334;47.872;16.384;2023-07-08T23:37:28;9.00;;;3.20;;
55469;SDS011;41334;47.872;16.384;2023-07-08T23:42:30;6.95;;;3.70;;
55469;SDS011;41334;47.872;16.384;2023-07-08T23:47:32;7.22;;;3.33;;
55469;SDS011;41334;47.872;16.384;2023-07-08T23:52:36;5.47;;;3.15;;
55469;SDS011;41334;47.872;16.384;2023-07-08T23:57:37;5.32;;;3.03;;
